createdAt,value
2018-07-13T00:00:20.422Z,88.80
2018-07-13T00:02:47.985Z,89.30
2018-07-13T00:05:15.678Z,90.00
2018-07-13T00:07:44.143Z,90.20
2018-07-13T00:10:11.777Z,90.40
2018-07-13T00:12:40.797Z,90.50
2018-07-13T00:17:37.344Z,90.00
2018-07-13T00:20:05.472Z,90.20
2018-07-13T00:22:33.151Z,90.50
2018-07-13T00:25:00.845Z,90.70
2018-07-13T00:27:28.497Z,90.70
2018-07-13T00:29:56.680Z,91.00
2018-07-13T00:32:24.243Z,91.10
2018-07-13T00:34:51.850Z,91.10
2018-07-13T00:37:19.876Z,91.00
2018-07-13T00:39:57.487Z,91.10
2018-07-13T00:42:28.106Z,91.40
2018-07-13T00:44:55.712Z,91.00
2018-07-13T00:47:23.289Z,91.00
2018-07-13T00:49:50.936Z,90.90
2018-07-13T00:52:18.693Z,91.20
2018-07-13T00:54:48.365Z,91.30
2018-07-13T00:57:15.941Z,91.00
2018-07-13T00:59:44.106Z,91.10
2018-07-13T01:02:11.737Z,91.10
2018-07-13T01:04:39.354Z,90.90
2018-07-13T01:07:07.267Z,91.20
2018-07-13T01:09:35.054Z,90.90
2018-07-13T01:12:02.798Z,90.90
2018-07-13T01:14:31.177Z,90.70
2018-07-13T01:16:58.917Z,90.80
2018-07-13T01:19:26.521Z,90.60
2018-07-13T01:21:54.120Z,90.70
2018-07-13T01:24:21.688Z,90.70
2018-07-13T01:26:50.587Z,91.00
2018-07-13T01:29:18.187Z,91.10
2018-07-13T01:31:45.818Z,90.90
2018-07-13T01:34:14.171Z,90.80
2018-07-13T01:36:42.061Z,90.70
2018-07-13T01:39:12.070Z,90.90
2018-07-13T01:41:39.958Z,91.20
2018-07-13T01:44:07.554Z,91.10
2018-07-13T01:46:35.158Z,91.10
2018-07-13T01:49:02.801Z,91.10
2018-07-13T01:51:33.194Z,90.90
2018-07-13T01:54:00.802Z,91.00
2018-07-13T01:56:28.726Z,91.10
2018-07-13T01:58:56.274Z,91.00
2018-07-13T02:01:23.856Z,91.00
2018-07-13T02:03:51.449Z,91.00
2018-07-13T02:06:19.030Z,91.10
2018-07-13T02:08:46.805Z,91.20
2018-07-13T02:11:14.385Z,91.30
2018-07-13T02:13:42.218Z,91.50
2018-07-13T02:16:10.110Z,91.70
2018-07-13T02:18:37.796Z,91.60
2018-07-13T02:21:05.617Z,91.50
2018-07-13T02:23:33.197Z,91.60
2018-07-13T02:26:00.777Z,91.40
2018-07-13T02:28:28.387Z,91.60
2018-07-13T02:30:55.987Z,91.50
2018-07-13T02:33:23.573Z,91.50
2018-07-13T02:35:51.185Z,92.00
2018-07-13T02:38:18.781Z,92.40
2018-07-13T02:40:46.345Z,92.30
2018-07-13T02:43:13.981Z,92.00
2018-07-13T02:45:42.074Z,91.80
2018-07-13T02:48:09.766Z,91.80
2018-07-13T02:50:37.753Z,91.70
2018-07-13T02:53:05.400Z,91.70
2018-07-13T02:55:32.974Z,92.00
2018-07-13T02:58:01.021Z,92.30
2018-07-13T03:00:28.643Z,92.20
2018-07-13T03:02:56.229Z,92.20
2018-07-13T03:05:23.837Z,92.10
2018-07-13T03:07:51.470Z,92.20
2018-07-13T03:10:19.164Z,92.40
2018-07-13T03:12:46.802Z,92.30
2018-07-13T03:15:14.358Z,92.60
2018-07-13T03:17:41.974Z,92.60
2018-07-13T03:20:09.566Z,92.50
2018-07-13T03:22:37.163Z,92.50
2018-07-13T03:25:04.948Z,92.60
2018-07-13T03:27:32.572Z,92.80
2018-07-13T03:30:00.172Z,92.90
2018-07-13T03:32:27.783Z,93.00
2018-07-13T03:34:55.349Z,93.00
2018-07-13T03:37:22.966Z,92.90
2018-07-13T03:39:50.558Z,93.00
2018-07-13T03:42:18.421Z,93.00
2018-07-13T03:44:46.018Z,93.10
2018-07-13T03:47:13.614Z,93.10
2018-07-13T03:49:41.214Z,92.90
2018-07-13T03:52:11.177Z,92.90
2018-07-13T03:54:38.774Z,93.00
2018-07-13T03:57:06.438Z,92.90
2018-07-13T03:59:34.017Z,93.10
2018-07-13T04:02:01.613Z,93.00
2018-07-13T04:04:29.299Z,93.20
2018-07-13T04:06:56.888Z,93.20
2018-07-13T04:09:24.612Z,93.40
2018-07-13T04:11:52.206Z,93.20
2018-07-13T04:14:19.959Z,93.20
2018-07-13T04:16:47.538Z,93.20
2018-07-13T04:19:15.157Z,93.20
2018-07-13T04:21:43.344Z,93.30
2018-07-13T04:24:11.043Z,93.50
2018-07-13T04:26:39.557Z,93.30
2018-07-13T04:29:07.261Z,93.20
2018-07-13T04:31:34.862Z,93.10
2018-07-13T04:34:02.627Z,93.20
2018-07-13T04:36:30.289Z,93.10
2018-07-13T04:38:57.869Z,93.20
2018-07-13T04:41:25.633Z,93.10
2018-07-13T04:43:53.263Z,92.90
2018-07-13T04:46:20.953Z,92.80
2018-07-13T04:48:48.642Z,92.50
2018-07-13T04:51:16.293Z,92.50
2018-07-13T04:53:44.295Z,92.20
2018-07-13T04:56:12.005Z,92.30
2018-07-13T04:58:39.749Z,92.20
2018-07-13T05:01:07.463Z,92.20
2018-07-13T05:03:35.179Z,92.20
2018-07-13T05:06:02.833Z,92.30
2018-07-13T05:08:30.608Z,92.10
2018-07-13T05:10:58.221Z,92.20
2018-07-13T05:13:25.857Z,92.10
2018-07-13T05:15:53.565Z,92.20
2018-07-13T05:18:21.206Z,92.20
2018-07-13T05:20:48.892Z,92.50
2018-07-13T05:23:16.581Z,92.40
2018-07-13T05:25:44.496Z,92.40
2018-07-13T05:28:12.299Z,92.60
2018-07-13T05:30:39.984Z,92.60
2018-07-13T05:33:07.710Z,92.40
2018-07-13T05:35:35.357Z,92.40
2018-07-13T05:38:04.869Z,92.30
2018-07-13T05:40:32.581Z,92.30
2018-07-13T05:43:00.252Z,92.20
2018-07-13T05:45:27.925Z,92.20
2018-07-13T05:47:55.579Z,92.30
2018-07-13T05:50:23.286Z,92.50
2018-07-13T05:52:51.154Z,92.50
2018-07-13T05:55:18.916Z,92.50
2018-07-13T05:57:47.909Z,92.40
2018-07-13T06:00:17.453Z,92.30
2018-07-13T06:02:46.643Z,92.40
2018-07-13T06:05:15.451Z,92.30
2018-07-13T06:07:43.530Z,92.20
2018-07-13T06:10:11.334Z,92.40
2018-07-13T06:12:38.988Z,92.50
2018-07-13T06:15:06.797Z,92.20
2018-07-13T06:17:34.996Z,92.30
2018-07-13T06:20:02.625Z,91.90
2018-07-13T06:22:30.210Z,91.60
2018-07-13T06:24:57.876Z,91.50
2018-07-13T06:27:25.440Z,91.40
2018-07-13T06:29:53.117Z,91.50
2018-07-13T06:32:20.953Z,91.60
2018-07-13T06:34:49.784Z,91.80
2018-07-13T06:37:17.391Z,92.00
2018-07-13T06:39:45.161Z,92.20
2018-07-13T06:42:12.815Z,91.90
2018-07-13T06:44:40.466Z,91.80
2018-07-13T06:47:08.052Z,91.70
2018-07-13T06:49:35.685Z,91.40
2018-07-13T06:52:03.375Z,91.50
2018-07-13T06:54:31.002Z,91.50
2018-07-13T06:56:58.605Z,91.40
2018-07-13T06:59:26.257Z,91.20
2018-07-13T07:01:54.038Z,91.20
2018-07-13T07:04:27.881Z,91.10
2018-07-13T07:06:55.993Z,91.30
2018-07-13T07:09:24.290Z,91.20
2018-07-13T07:12:37.745Z,90.80
2018-07-13T07:15:05.531Z,90.70
2018-07-13T07:17:33.131Z,90.20
2018-07-13T07:20:00.782Z,90.10
2018-07-13T07:22:28.370Z,89.90
2018-07-13T07:24:55.969Z,90.00
2018-07-13T07:27:23.685Z,89.80
2018-07-13T07:29:51.326Z,89.30
2018-07-13T07:32:18.989Z,89.40
2018-07-13T07:34:46.652Z,88.60
2018-07-13T07:37:14.307Z,88.00
2018-07-13T07:39:41.897Z,87.90
2018-07-13T07:42:09.917Z,88.30
2018-07-13T07:44:37.991Z,87.30
2018-07-13T07:47:05.610Z,87.30
2018-07-13T07:49:33.202Z,87.30
2018-07-13T07:52:01.518Z,87.30
2018-07-13T07:54:29.146Z,85.90
2018-07-13T07:56:56.896Z,85.90
2018-07-13T07:59:24.507Z,86.20
2018-07-13T08:01:52.711Z,86.60
2018-07-13T08:04:20.293Z,86.90
2018-07-13T08:06:48.231Z,86.30
2018-07-13T08:09:15.620Z,86.40
2018-07-13T08:11:43.657Z,85.00
2018-07-13T08:14:11.509Z,85.60
2018-07-13T08:16:38.994Z,85.60
2018-07-13T08:19:06.617Z,85.20
2018-07-13T08:21:39.430Z,84.00
2018-07-13T08:24:08.008Z,82.70
2018-07-13T08:26:36.247Z,83.00
2018-07-13T08:29:03.916Z,83.20
2018-07-13T08:31:31.632Z,83.70
2018-07-13T08:33:59.225Z,82.60
2018-07-13T08:36:26.955Z,82.40
2018-07-13T08:39:11.883Z,82.60
2018-07-13T08:41:39.616Z,82.00
2018-07-13T08:44:08.062Z,81.90
2018-07-13T08:46:35.869Z,80.40
2018-07-13T08:49:03.518Z,79.80
2018-07-13T08:51:31.190Z,81.30
2018-07-13T08:53:58.963Z,81.20
2018-07-13T08:56:26.646Z,79.60
2018-07-13T08:58:54.701Z,79.00
2018-07-13T09:01:22.465Z,78.60
2018-07-13T09:03:50.513Z,78.60
2018-07-13T09:06:18.196Z,79.50
2018-07-13T09:08:45.997Z,78.20
2018-07-13T09:11:13.566Z,77.20
2018-07-13T09:13:41.243Z,75.60
2018-07-13T09:16:08.846Z,76.30
2018-07-13T09:18:36.534Z,75.80
2018-07-13T09:21:04.208Z,77.30
2018-07-13T09:23:31.792Z,76.10
2018-07-13T09:28:26.937Z,75.70
2018-07-13T09:30:54.686Z,75.60
2018-07-13T09:33:22.316Z,74.50
2018-07-13T09:35:50.436Z,74.60
2018-07-13T09:38:18.063Z,75.60
2018-07-13T09:40:46.274Z,75.20
2018-07-13T09:43:14.041Z,76.30
2018-07-13T09:45:41.696Z,76.20
2018-07-13T09:48:09.358Z,73.00
2018-07-13T09:50:38.322Z,72.70
2018-07-13T09:53:06.029Z,72.00
2018-07-13T09:55:33.627Z,72.60
2018-07-13T09:58:01.225Z,70.60
2018-07-13T10:01:31.538Z,70.30
2018-07-13T10:03:59.202Z,70.70
2018-07-13T10:06:26.783Z,71.10
2018-07-13T10:08:54.414Z,70.80
2018-07-13T10:11:21.993Z,71.00
2018-07-13T10:13:49.687Z,70.00
2018-07-13T10:16:17.330Z,69.50
2018-07-13T10:18:45.012Z,69.00
2018-07-13T10:21:12.666Z,69.20
2018-07-13T10:23:40.992Z,68.20
2018-07-13T10:26:11.899Z,65.70
2018-07-13T10:28:39.806Z,66.80
2018-07-13T10:31:08.317Z,66.60
2018-07-13T10:33:37.579Z,65.60
2018-07-13T10:36:06.864Z,66.60
2018-07-13T10:38:34.629Z,64.20
2018-07-13T10:41:02.242Z,64.70
2018-07-13T10:43:29.938Z,63.60
2018-07-13T10:45:57.649Z,64.40
2018-07-13T10:48:25.285Z,63.00
2018-07-13T10:50:52.825Z,59.50
2018-07-13T10:53:20.410Z,59.40
2018-07-13T10:55:48.932Z,58.80
2018-07-13T10:58:16.563Z,61.90
2018-07-13T11:00:44.210Z,59.70
2018-07-13T11:03:11.896Z,58.00
2018-07-13T11:05:39.450Z,56.90
2018-07-13T11:08:07.260Z,56.30
2018-07-13T11:10:34.765Z,56.60
2018-07-13T11:13:02.377Z,56.90
2018-07-13T11:15:29.962Z,55.70
2018-07-13T11:17:57.525Z,56.10
2018-07-13T11:20:25.114Z,56.40
2018-07-13T11:22:52.932Z,55.40
2018-07-13T11:25:20.493Z,55.90
2018-07-13T11:27:48.769Z,55.90
2018-07-13T11:30:16.404Z,55.40
2018-07-13T11:32:44.537Z,53.30
2018-07-13T11:35:12.565Z,54.60
2018-07-13T11:37:40.167Z,55.20
2018-07-13T11:40:08.555Z,55.60
2018-07-13T11:42:36.158Z,55.00
2018-07-13T11:45:03.781Z,55.10
2018-07-13T11:47:31.445Z,53.10
2018-07-13T11:49:59.018Z,52.80
2018-07-13T11:52:26.565Z,52.30
2018-07-13T11:54:54.409Z,51.40
2018-07-13T11:57:22.170Z,52.00
2018-07-13T11:59:49.753Z,50.30
2018-07-13T12:02:17.306Z,50.40
2018-07-13T12:04:44.876Z,49.90
2018-07-13T12:07:12.581Z,50.10
2018-07-13T12:12:07.677Z,47.20
2018-07-13T12:14:35.502Z,48.40
2018-07-13T12:17:03.381Z,47.90
2018-07-13T12:19:30.962Z,46.60
2018-07-13T12:21:58.542Z,46.60
2018-07-13T12:24:26.118Z,46.40
2018-07-13T12:26:53.735Z,46.60
2018-07-13T12:29:21.285Z,46.40
2018-07-13T12:31:48.953Z,46.40
2018-07-13T12:34:16.537Z,47.30
2018-07-13T12:36:44.081Z,44.80
2018-07-13T12:39:11.669Z,44.00
2018-07-13T12:41:39.238Z,42.60
2018-07-13T12:44:06.853Z,42.40
2018-07-13T12:46:34.451Z,44.10
2018-07-13T12:49:02.718Z,43.80
2018-07-13T12:51:30.324Z,43.40
2018-07-13T12:53:58.273Z,45.60
2018-07-13T12:56:25.982Z,45.40
2018-07-13T12:58:55.179Z,46.10
2018-07-13T13:01:22.880Z,44.20
2018-07-13T13:03:50.500Z,43.90
2018-07-13T13:06:18.346Z,41.60
2018-07-13T13:08:46.274Z,42.40
2018-07-13T13:11:13.914Z,40.50
2018-07-13T13:13:41.563Z,41.70
2018-07-13T13:16:09.153Z,42.20
2018-07-13T13:18:36.702Z,41.90
2018-07-13T13:21:04.281Z,43.40
2018-07-13T13:23:31.885Z,41.60
2018-07-13T13:25:59.493Z,39.80
2018-07-13T13:28:27.145Z,39.20
2018-07-13T13:30:54.741Z,38.40
2018-07-13T13:33:22.527Z,37.70
2018-07-13T13:35:50.853Z,36.60
2018-07-13T13:38:18.416Z,37.30
2018-07-13T13:40:46.093Z,36.40
2018-07-13T13:43:14.476Z,34.70
2018-07-13T13:45:42.268Z,34.70
2018-07-13T13:48:10.306Z,35.00
2018-07-13T13:50:38.294Z,35.80
2018-07-13T13:53:05.870Z,35.70
2018-07-13T13:55:33.469Z,35.10
2018-07-13T13:58:01.079Z,34.60
2018-07-13T14:00:28.673Z,34.80
2018-07-13T14:02:56.209Z,33.60
2018-07-13T14:05:23.945Z,31.20
2018-07-13T14:07:51.657Z,29.90
2018-07-13T14:10:19.836Z,29.20
2018-07-13T14:12:48.266Z,26.80
2018-07-13T14:15:15.876Z,25.80
2018-07-13T14:17:43.500Z,26.10
2018-07-13T14:20:11.217Z,24.60
2018-07-13T14:22:38.799Z,25.20
2018-07-13T14:25:13.315Z,24.60
2018-07-13T14:27:40.899Z,23.70
2018-07-13T14:30:08.733Z,24.80
2018-07-13T14:32:36.324Z,25.40
2018-07-13T14:35:03.986Z,24.20
2018-07-13T14:37:31.909Z,22.10
2018-07-13T14:40:01.207Z,23.00
2018-07-13T14:42:29.607Z,23.20
2018-07-13T14:44:57.262Z,22.30
2018-07-13T14:47:25.043Z,20.70
2018-07-13T14:49:52.745Z,20.90
2018-07-13T14:52:20.446Z,20.30
2018-07-13T14:54:48.014Z,19.90
2018-07-13T14:57:15.606Z,19.60
2018-07-13T14:59:43.219Z,20.10
2018-07-13T15:02:10.783Z,20.80
2018-07-13T15:04:38.338Z,21.70
2018-07-13T15:07:05.952Z,20.70
2018-07-13T15:09:33.601Z,19.80
2018-07-13T15:12:01.178Z,19.50
2018-07-13T15:14:28.854Z,21.40
2018-07-13T15:16:56.439Z,23.60
2018-07-13T15:19:24.146Z,25.00
2018-07-13T15:21:51.980Z,25.50
2018-07-13T15:24:19.574Z,25.50
2018-07-13T15:26:47.179Z,25.70
2018-07-13T15:29:15.069Z,25.60
2018-07-13T15:31:42.685Z,26.30
2018-07-13T15:34:10.269Z,26.40
2018-07-13T15:36:37.862Z,24.80
2018-07-13T15:39:06.770Z,22.20
2018-07-13T15:41:34.365Z,21.90
2018-07-13T15:44:01.974Z,20.40
2018-07-13T15:46:29.576Z,21.40
2018-07-13T15:48:57.300Z,20.70
2018-07-13T15:51:24.904Z,21.20
2018-07-13T15:53:52.680Z,22.30
2018-07-13T15:56:20.254Z,22.20
2018-07-13T15:58:47.866Z,20.90
2018-07-13T16:01:15.433Z,20.50
2018-07-13T16:03:43.117Z,20.60
2018-07-13T16:06:10.742Z,20.60
2018-07-13T16:08:38.477Z,22.40
2018-07-13T16:11:06.075Z,22.40
2018-07-13T16:13:33.821Z,21.50
2018-07-13T16:16:01.544Z,20.30
2018-07-13T16:18:29.131Z,20.30
2018-07-13T16:20:56.698Z,21.40
2018-07-13T16:23:24.289Z,21.30
2018-07-13T16:25:52.893Z,20.90
2018-07-13T16:28:21.021Z,20.60
2018-07-13T16:30:48.716Z,20.30
2018-07-13T16:33:16.285Z,20.60
2018-07-13T16:35:43.846Z,21.00
2018-07-13T16:38:11.456Z,21.70
2018-07-13T16:40:39.045Z,20.80
2018-07-13T16:43:06.646Z,20.80
2018-07-13T16:45:34.265Z,20.90
2018-07-13T16:48:01.834Z,21.70
2018-07-13T16:50:29.845Z,21.70
2018-07-13T16:52:57.730Z,22.80
2018-07-13T16:55:25.301Z,21.30
2018-07-13T16:57:52.894Z,21.70
2018-07-13T17:00:20.729Z,22.10
2018-07-13T17:02:48.310Z,22.50
2018-07-13T17:05:16.425Z,21.70
2018-07-13T17:07:44.049Z,21.30
2018-07-13T17:12:39.237Z,21.70
2018-07-13T17:15:07.049Z,21.70
2018-07-13T17:17:34.666Z,21.60
2018-07-13T17:20:02.374Z,22.50
2018-07-13T17:22:30.002Z,23.80
2018-07-13T17:24:57.554Z,25.00
2018-07-13T17:27:25.146Z,26.30
2018-07-13T17:29:52.713Z,27.80
2018-07-13T17:34:48.009Z,30.00
2018-07-13T17:37:16.562Z,31.30
2018-07-13T17:39:44.305Z,31.70
2018-07-13T17:42:11.861Z,32.20
2018-07-13T17:44:39.526Z,32.20
2018-07-13T17:47:07.153Z,32.80
2018-07-13T17:49:34.805Z,34.50
2018-07-13T17:52:02.370Z,34.70
2018-07-13T17:54:30.109Z,34.00
2018-07-13T17:56:57.714Z,34.20
2018-07-13T17:59:25.277Z,34.90
2018-07-13T18:01:53.349Z,34.50
2018-07-13T18:04:20.970Z,34.60
2018-07-13T18:06:48.541Z,35.20
2018-07-13T18:09:16.165Z,36.20
2018-07-13T18:11:43.786Z,35.50
2018-07-13T18:14:11.342Z,35.70
2018-07-13T18:16:38.893Z,36.50
2018-07-13T18:19:06.507Z,36.40
2018-07-13T18:21:34.111Z,37.50
2018-07-13T18:24:01.728Z,37.80
2018-07-13T18:26:36.276Z,38.40
2018-07-13T18:29:03.936Z,38.50
2018-07-13T18:31:31.497Z,38.90
2018-07-13T18:33:59.083Z,39.00
2018-07-13T18:36:26.694Z,39.90
2018-07-13T18:38:54.310Z,39.20
2018-07-13T18:41:21.898Z,39.40
2018-07-13T18:43:49.521Z,39.60
2018-07-13T18:46:17.141Z,40.20
2018-07-13T18:48:47.481Z,40.40
2018-07-13T18:51:15.161Z,40.80
2018-07-13T18:53:42.758Z,40.50
2018-07-13T18:56:10.703Z,41.40
2018-07-13T18:58:38.695Z,42.00
2018-07-13T19:01:06.337Z,43.40
2018-07-13T19:03:33.909Z,44.30
2018-07-13T19:06:07.393Z,44.60
2018-07-13T19:08:34.968Z,47.50
2018-07-13T19:11:04.021Z,47.30
2018-07-13T19:13:31.619Z,48.40
2018-07-13T19:15:59.189Z,49.30
2018-07-13T19:18:26.833Z,48.90
2018-07-13T19:20:54.489Z,50.00
2018-07-13T19:25:49.806Z,51.00
2018-07-13T19:28:17.382Z,51.90
2018-07-13T19:33:12.546Z,52.30
2018-07-13T19:35:40.172Z,53.90
2018-07-13T19:38:08.469Z,52.70
2018-07-13T19:40:36.074Z,53.60
2018-07-13T19:43:03.788Z,52.50
2018-07-13T19:45:31.381Z,52.90
2018-07-13T19:47:58.953Z,52.90
2018-07-13T19:50:27.081Z,52.80
2018-07-13T19:55:22.272Z,53.20
2018-07-13T19:57:49.943Z,53.40
2018-07-13T20:00:17.610Z,54.20
2018-07-13T20:02:45.241Z,54.50
2018-07-13T20:05:12.845Z,55.90
2018-07-13T20:07:40.794Z,56.00
2018-07-13T20:10:08.646Z,56.00
2018-07-13T20:12:36.244Z,55.90
2018-07-13T20:17:32.289Z,57.60
2018-07-13T20:19:59.942Z,58.20
2018-07-13T20:22:27.509Z,58.40
2018-07-13T20:24:58.014Z,58.20
2018-07-13T20:27:25.637Z,58.90
2018-07-13T20:29:53.246Z,59.30
2018-07-13T20:32:20.818Z,60.00
2018-07-13T20:34:48.480Z,60.40
2018-07-13T20:37:16.066Z,61.00
2018-07-13T20:42:11.898Z,61.10
2018-07-13T20:47:07.052Z,62.20
2018-07-13T20:49:34.673Z,62.60
2018-07-13T20:52:02.253Z,62.60
2018-07-13T20:54:29.853Z,63.20
2018-07-13T20:56:57.442Z,62.70
2018-07-13T20:59:25.092Z,62.90
2018-07-13T21:01:52.688Z,62.90
2018-07-13T21:04:20.246Z,62.70
2018-07-13T21:06:47.841Z,62.50
2018-07-13T21:09:15.393Z,62.70
2018-07-13T21:11:43.053Z,63.20
2018-07-13T21:14:10.622Z,63.60
2018-07-13T21:16:38.258Z,63.40
2018-07-13T21:19:05.829Z,64.70
2018-07-13T21:21:33.401Z,63.80
2018-07-13T21:24:01.026Z,63.40
2018-07-13T21:26:28.638Z,64.30
2018-07-13T21:28:56.226Z,65.00
2018-07-13T21:31:23.841Z,65.40
2018-07-13T21:33:51.438Z,65.50
2018-07-13T21:36:19.053Z,66.60
2018-07-13T21:38:46.697Z,66.90
2018-07-13T21:41:14.311Z,67.30
2018-07-13T21:43:41.941Z,67.20
2018-07-13T21:46:09.525Z,67.70
2018-07-13T21:48:37.080Z,67.70
2018-07-13T21:51:04.750Z,68.30
2018-07-13T21:53:32.373Z,69.00
2018-07-13T21:55:59.977Z,68.50
2018-07-13T21:58:27.661Z,67.40
2018-07-13T22:00:55.277Z,67.50
2018-07-13T22:03:22.907Z,68.40
2018-07-13T22:05:50.473Z,66.90
2018-07-13T22:08:18.055Z,67.20
2018-07-13T22:10:45.701Z,67.80
2018-07-13T22:13:13.359Z,68.30
2018-07-13T22:15:40.938Z,68.00
2018-07-13T22:18:08.722Z,67.90
2018-07-13T22:20:36.354Z,67.80
2018-07-13T22:23:04.009Z,68.80
2018-07-13T22:25:31.685Z,68.80
2018-07-13T22:27:59.386Z,68.10
2018-07-13T22:30:27.029Z,68.50
2018-07-13T22:32:54.601Z,68.70
2018-07-13T22:35:22.189Z,68.70
2018-07-13T22:37:50.238Z,68.90
2018-07-13T22:40:17.841Z,68.10
2018-07-13T22:42:45.449Z,68.30
2018-07-13T22:45:13.041Z,68.40
2018-07-13T22:47:40.667Z,68.60
2018-07-13T22:50:08.307Z,68.00
2018-07-13T22:52:35.913Z,68.30
2018-07-13T22:55:03.572Z,68.60
2018-07-13T22:57:31.254Z,69.00
2018-07-13T22:59:58.939Z,68.90
2018-07-13T23:02:26.449Z,70.30
2018-07-13T23:04:54.058Z,70.30
2018-07-13T23:07:24.082Z,70.10
2018-07-13T23:09:51.705Z,70.50
2018-07-13T23:12:19.305Z,70.40
2018-07-13T23:14:46.986Z,71.10
2018-07-13T23:17:14.594Z,71.50
2018-07-13T23:19:42.192Z,72.10
2018-07-13T23:22:09.813Z,72.00
2018-07-13T23:24:37.506Z,72.00
2018-07-13T23:27:05.181Z,72.80
2018-07-13T23:32:00.325Z,73.20
2018-07-13T23:34:27.917Z,72.90
2018-07-13T23:36:55.514Z,73.70
2018-07-13T23:39:23.085Z,74.50
2018-07-13T23:41:50.718Z,73.70
2018-07-13T23:44:18.296Z,74.50
2018-07-13T23:46:45.897Z,73.80
2018-07-13T23:49:13.474Z,74.20
2018-07-13T23:51:49.025Z,74.70
2018-07-13T23:54:16.655Z,74.90
2018-07-13T23:56:44.273Z,76.10
2018-07-13T23:59:11.877Z,76.10
